Terminal Aerodrome Forecast
Issued by NWS Corpus Christi, TX

Current Version | Previous Version | Text Only | Print | Product List | Glossary On
Versions: 1 2 3 4 5 6 7 8 9 10 11 12 13
000
FTUS44 KCRP 261700
TAFCRP
TAF
KCRP 261738Z 2618/2718 16016G24KT P6SM SCT015 BKN025 OVC040
      TEMPO 2618/2620 BKN015
     FM262200 15014KT P6SM SCT025 BKN040
     FM270300 15008KT P6SM OVC015
     FM270700 15006KT 4SM BR OVC004
     FM271530 17009KT P6SM VCSH BKN008 OVC015=

USA.gov is the U.S. government's official web portal to all federal, state and local government web resources and services.